createdAt,value
2018-06-18T00:00:44.532Z,1014.58
2018-06-18T00:01:53.170Z,1014.64
2018-06-18T00:03:01.819Z,1014.67
2018-06-18T00:04:10.456Z,1014.69
2018-06-18T00:05:19.374Z,1014.75
2018-06-18T00:06:28.289Z,1014.76
2018-06-18T00:07:36.934Z,1014.74
2018-06-18T00:08:45.571Z,1014.77
2018-06-18T00:09:54.483Z,1014.78
2018-06-18T00:11:03.132Z,1014.81
2018-06-18T00:12:11.784Z,1014.85
2018-06-18T00:13:20.429Z,1014.86
2018-06-18T00:14:29.332Z,1014.86
2018-06-18T00:15:38.248Z,1014.86
2018-06-18T00:16:46.889Z,1014.82
2018-06-18T00:17:56.105Z,1014.83
2018-06-18T00:19:04.743Z,1014.86
2018-06-18T00:20:13.394Z,1014.87
2018-06-18T00:21:22.033Z,1014.85
2018-06-18T00:22:30.697Z,1014.82
2018-06-18T00:23:39.329Z,1014.76
2018-06-18T00:24:47.978Z,1014.75
2018-06-18T00:25:56.622Z,1014.77
2018-06-18T00:27:05.276Z,1014.79
2018-06-18T00:28:13.922Z,1014.82
2018-06-18T00:29:22.564Z,1014.82
2018-06-18T00:30:31.207Z,1014.82
2018-06-18T00:31:39.851Z,1014.84
2018-06-18T00:32:48.507Z,1014.87
2018-06-18T00:33:57.146Z,1014.88
2018-06-18T00:35:05.797Z,1014.87
2018-06-18T00:36:14.438Z,1014.81
2018-06-18T00:37:23.090Z,1014.84
2018-06-18T00:38:31.735Z,1014.81
2018-06-18T00:39:40.381Z,1014.83
2018-06-18T00:40:49.021Z,1014.85
2018-06-18T00:41:57.672Z,1014.85
2018-06-18T00:43:06.318Z,1014.82
2018-06-18T00:44:15.233Z,1014.82
2018-06-18T00:45:24.132Z,1014.73
2018-06-18T00:46:32.778Z,1014.73
2018-06-18T00:47:41.430Z,1014.66
2018-06-18T00:48:50.077Z,1014.65
2018-06-18T00:49:58.993Z,1014.62
2018-06-18T00:51:07.901Z,1014.57
2018-06-18T00:52:17.072Z,1014.55
2018-06-18T00:53:25.981Z,1014.52
2018-06-18T00:54:34.633Z,1014.54
2018-06-18T00:55:43.274Z,1014.46
2018-06-18T00:56:51.918Z,1014.47
2018-06-18T00:58:00.562Z,1014.4
2018-06-18T00:59:09.475Z,1014.36
2018-06-18T01:00:18.120Z,1014.32
2018-06-18T01:01:27.024Z,1014.29
2018-06-18T01:02:35.662Z,1014.29
2018-06-18T01:03:44.317Z,1014.26
2018-06-18T01:04:52.957Z,1014.22
2018-06-18T01:06:01.602Z,1014.2
2018-06-18T01:07:10.253Z,1014.23
2018-06-18T01:08:18.899Z,1014.25
2018-06-18T01:09:27.816Z,1014.26
2018-06-18T01:10:36.458Z,1014.25
2018-06-18T01:11:45.105Z,1014.25
2018-06-18T01:12:53.754Z,1014.24
2018-06-18T01:14:02.398Z,1014.23
2018-06-18T01:15:11.317Z,1014.23
2018-06-18T01:16:19.962Z,1014.23
2018-06-18T01:17:28.864Z,1014.24
2018-06-18T01:18:37.515Z,1014.21
2018-06-18T01:19:46.157Z,1014.19
2018-06-18T01:20:54.805Z,1014.16
2018-06-18T01:22:03.446Z,1014.15
2018-06-18T01:23:12.094Z,1014.11
2018-06-18T01:24:20.738Z,1014.09
2018-06-18T01:25:29.388Z,1014.1
2018-06-18T01:26:38.298Z,1014.12
2018-06-18T01:27:46.940Z,1014.09
2018-06-18T01:28:55.584Z,1014.14
2018-06-18T01:30:04.503Z,1014.14
2018-06-18T01:31:13.156Z,1014.12
2018-06-18T01:32:21.799Z,1014.12
2018-06-18T01:33:30.445Z,1014.14
2018-06-18T01:34:39.089Z,1014.13
2018-06-18T01:35:47.746Z,1014.14
2018-06-18T01:36:56.648Z,1014.16
2018-06-18T01:38:05.297Z,1014.18
2018-06-18T01:39:14.237Z,1014.15
2018-06-18T01:40:23.157Z,1014.18
2018-06-18T01:41:31.799Z,1014.22
2018-06-18T01:42:40.440Z,1014.19
2018-06-18T01:43:49.084Z,1014.25
2018-06-18T01:44:57.990Z,1014.25
2018-06-18T01:46:06.648Z,1014.27
2018-06-18T01:47:15.289Z,1014.3
2018-06-18T01:48:23.939Z,1014.25
2018-06-18T01:49:32.577Z,1014.25
2018-06-18T01:50:41.230Z,1014.24
2018-06-18T01:51:49.871Z,1014.21
2018-06-18T01:52:58.522Z,1014.18
2018-06-18T01:54:07.159Z,1014.13
2018-06-18T01:55:15.814Z,1014.13
2018-06-18T01:56:24.457Z,1014.06
2018-06-18T01:57:33.103Z,1014.05
2018-06-18T01:58:41.741Z,1014.06
2018-06-18T01:59:50.388Z,1014.08
2018-06-18T02:00:59.037Z,1014.09
2018-06-18T02:02:07.685Z,1014.13
2018-06-18T02:03:16.862Z,1014.1
2018-06-18T02:04:25.499Z,1014.13
2018-06-18T02:05:34.415Z,1014.17
2018-06-18T02:06:43.057Z,1014.15
2018-06-18T02:07:51.714Z,1014.13
2018-06-18T02:09:00.351Z,1014.16
2018-06-18T02:10:09.002Z,1014.09
2018-06-18T02:11:17.913Z,1014.01
2018-06-18T02:12:26.566Z,1014.01
2018-06-18T02:13:35.204Z,1014
2018-06-18T02:14:43.853Z,1013.98
2018-06-18T02:15:52.493Z,1014.03
2018-06-18T02:17:01.147Z,1014.03
2018-06-18T02:18:10.054Z,1014.01
2018-06-18T02:19:18.695Z,1014.03
2018-06-18T02:20:27.343Z,1014.02
2018-06-18T02:21:35.987Z,1013.98
2018-06-18T02:22:44.636Z,1013.97
2018-06-18T02:23:53.277Z,1013.95
2018-06-18T02:25:01.927Z,1013.93
2018-06-18T02:26:10.564Z,1013.94
2018-06-18T02:27:19.217Z,1013.93
2018-06-18T02:28:27.862Z,1013.94
2018-06-18T02:29:36.509Z,1013.94
2018-06-18T02:30:45.147Z,1013.91
2018-06-18T02:31:53.807Z,1013.93
2018-06-18T02:33:02.733Z,1013.92
2018-06-18T02:34:11.915Z,1013.9
2018-06-18T02:35:20.562Z,1013.9
2018-06-18T02:36:29.476Z,1013.94
2018-06-18T02:37:38.126Z,1013.9
2018-06-18T02:38:46.770Z,1013.91
2018-06-18T02:39:55.420Z,1013.92
2018-06-18T02:41:04.061Z,1013.96
2018-06-18T02:42:12.705Z,1013.99
2018-06-18T02:43:21.353Z,1014
2018-06-18T02:44:30.268Z,1014.01
2018-06-18T02:45:38.909Z,1014.04
2018-06-18T02:46:47.555Z,1014.04
2018-06-18T02:47:56.217Z,1014.04
2018-06-18T02:49:04.873Z,1014.11
2018-06-18T02:50:13.518Z,1014.13
2018-06-18T02:51:22.450Z,1014.13
2018-06-18T02:52:31.093Z,1014.12
2018-06-18T02:53:39.747Z,1014.14
2018-06-18T02:54:48.394Z,1014.13
2018-06-18T02:55:57.041Z,1014.1
2018-06-18T02:57:05.692Z,1014.11
2018-06-18T02:58:14.334Z,1014.1
2018-06-18T02:59:23.255Z,1014.08
2018-06-18T03:00:32.178Z,1014.05
2018-06-18T03:01:41.092Z,1014.06
2018-06-18T03:02:49.993Z,1014.07
2018-06-18T03:03:58.652Z,1014.1
2018-06-18T03:05:07.569Z,1014.09
2018-06-18T03:06:16.534Z,1014.09
2018-06-18T03:07:25.589Z,1014.13
2018-06-18T03:08:34.240Z,1014.15
2018-06-18T03:09:43.124Z,1014.15
2018-06-18T03:10:52.140Z,1014.13
2018-06-18T03:12:00.792Z,1014.16
2018-06-18T03:13:09.713Z,1014.14
2018-06-18T03:14:18.621Z,1014.17
2018-06-18T03:15:27.277Z,1014.21
2018-06-18T03:16:35.931Z,1014.13
2018-06-18T03:17:44.571Z,1014.15
2018-06-18T03:18:53.218Z,1014.19
2018-06-18T03:20:01.864Z,1014.2
2018-06-18T03:21:10.796Z,1014.24
2018-06-18T03:22:19.440Z,1014.23
2018-06-18T03:23:28.085Z,1014.23
2018-06-18T03:24:36.732Z,1014.22
2018-06-18T03:25:45.381Z,1014.22
2018-06-18T03:26:54.021Z,1014.24
2018-06-18T03:28:02.933Z,1014.24
2018-06-18T03:29:11.577Z,1014.26
2018-06-18T03:30:20.229Z,1014.24
2018-06-18T03:31:28.892Z,1014.29
2018-06-18T03:32:37.543Z,1014.27
2018-06-18T03:33:46.190Z,1014.29
2018-06-18T03:34:55.107Z,1014.33
2018-06-18T03:36:03.749Z,1014.29
2018-06-18T03:37:12.669Z,1014.31
2018-06-18T03:38:21.573Z,1014.32
2018-06-18T03:39:30.225Z,1014.31
2018-06-18T03:40:38.866Z,1014.3
2018-06-18T03:41:47.770Z,1014.32
2018-06-18T03:42:56.414Z,1014.33
2018-06-18T03:44:05.064Z,1014.31
2018-06-18T03:45:13.971Z,1014.29
2018-06-18T03:46:22.620Z,1014.27
2018-06-18T03:47:31.262Z,1014.28
2018-06-18T03:48:39.914Z,1014.31
2018-06-18T03:49:48.556Z,1014.3
2018-06-18T03:50:57.201Z,1014.33
2018-06-18T03:52:05.846Z,1014.34
2018-06-18T03:53:14.751Z,1014.34
2018-06-18T03:54:23.677Z,1014.28
2018-06-18T03:55:32.320Z,1014.29
2018-06-18T03:56:40.965Z,1014.34
2018-06-18T03:57:49.615Z,1014.37
2018-06-18T03:58:58.266Z,1014.37
2018-06-18T04:00:06.911Z,1014.36
2018-06-18T04:01:15.555Z,1014.32
2018-06-18T04:02:24.195Z,1014.32
2018-06-18T04:03:32.846Z,1014.31
2018-06-18T04:04:41.488Z,1014.32
2018-06-18T04:05:50.399Z,1014.29
2018-06-18T04:06:59.315Z,1014.28
2018-06-18T04:08:07.969Z,1014.3
2018-06-18T04:09:16.877Z,1014.32
2018-06-18T04:10:25.793Z,1014.35
2018-06-18T04:11:34.438Z,1014.33
2018-06-18T04:12:43.345Z,1014.36
2018-06-18T04:13:51.992Z,1014.32
2018-06-18T04:15:00.640Z,1014.3
2018-06-18T04:16:09.558Z,1014.3
2018-06-18T04:17:18.202Z,1014.3
2018-06-18T04:18:26.850Z,1014.3
2018-06-18T04:19:35.757Z,1014.34
2018-06-18T04:20:44.936Z,1014.31
2018-06-18T04:21:53.577Z,1014.35
2018-06-18T04:23:02.225Z,1014.39
2018-06-18T04:24:10.862Z,1014.35
2018-06-18T04:25:19.509Z,1014.39
2018-06-18T04:26:28.153Z,1014.35
2018-06-18T04:27:36.799Z,1014.36
2018-06-18T04:28:45.444Z,1014.33
2018-06-18T04:29:54.351Z,1014.31
2018-06-18T04:31:03.050Z,1014.31
2018-06-18T04:32:11.642Z,1014.27
2018-06-18T04:33:20.293Z,1014.29
2018-06-18T04:34:29.194Z,1014.28
2018-06-18T04:35:37.849Z,1014.31
2018-06-18T04:36:46.488Z,1014.28
2018-06-18T04:37:55.140Z,1014.29
2018-06-18T04:39:03.784Z,1014.29
2018-06-18T04:40:12.434Z,1014.29
2018-06-18T04:41:21.076Z,1014.28
2018-06-18T04:42:29.727Z,1014.29
2018-06-18T04:43:38.626Z,1014.27
2018-06-18T04:44:47.291Z,1014.25
2018-06-18T04:45:56.179Z,1014.27
2018-06-18T04:47:04.828Z,1014.24
2018-06-18T04:48:13.475Z,1014.23
2018-06-18T04:49:22.118Z,1014.24
2018-06-18T04:50:30.763Z,1014.24
2018-06-18T04:51:39.668Z,1014.3
2018-06-18T04:52:48.324Z,1014.29
2018-06-18T04:53:56.962Z,1014.29
2018-06-18T04:55:05.612Z,1014.31
2018-06-18T04:56:14.258Z,1014.32
2018-06-18T04:57:22.913Z,1014.29
2018-06-18T04:58:31.551Z,1014.3
2018-06-18T04:59:40.201Z,1014.28
2018-06-18T05:00:48.843Z,1014.31
2018-06-18T05:01:57.506Z,1014.35
2018-06-18T05:03:06.409Z,1014.34
2018-06-18T05:04:15.052Z,1014.28
2018-06-18T05:05:23.693Z,1014.33
2018-06-18T05:06:32.335Z,1014.38
2018-06-18T05:07:40.990Z,1014.39
2018-06-18T05:08:49.898Z,1014.4
2018-06-18T05:09:58.550Z,1014.4
2018-06-18T05:11:07.187Z,1014.4
2018-06-18T05:12:15.841Z,1014.4
2018-06-18T05:13:24.483Z,1014.44
2018-06-18T05:14:33.133Z,1014.41
2018-06-18T05:15:42.033Z,1014.48
2018-06-18T05:16:50.687Z,1014.46
2018-06-18T05:17:59.595Z,1014.48
2018-06-18T05:19:08.242Z,1014.44
2018-06-18T05:20:16.882Z,1014.42
2018-06-18T05:21:25.530Z,1014.4
2018-06-18T05:22:34.448Z,1014.42
2018-06-18T05:23:43.095Z,1014.4
2018-06-18T05:24:51.743Z,1014.38
2018-06-18T05:26:00.380Z,1014.41
2018-06-18T05:27:09.029Z,1014.39
2018-06-18T05:28:17.672Z,1014.39
2018-06-18T05:29:26.331Z,1014.38
2018-06-18T05:30:34.964Z,1014.37
2018-06-18T05:31:43.615Z,1014.35
2018-06-18T05:32:52.527Z,1014.35
2018-06-18T05:34:01.183Z,1014.32
2018-06-18T05:35:09.821Z,1014.32
2018-06-18T05:36:18.467Z,1014.31
2018-06-18T05:37:27.111Z,1014.28
2018-06-18T05:38:35.767Z,1014.3
2018-06-18T05:39:44.692Z,1014.27
2018-06-18T05:40:53.335Z,1014.22
2018-06-18T05:42:02.242Z,1014.25
2018-06-18T05:43:10.887Z,1014.27
2018-06-18T05:44:19.543Z,1014.28
2018-06-18T05:45:28.183Z,1014.3
2018-06-18T05:46:37.357Z,1014.3
2018-06-18T05:47:45.994Z,1014.3
2018-06-18T05:48:54.925Z,1014.29
2018-06-18T05:50:03.566Z,1014.31
2018-06-18T05:51:12.218Z,1014.32
2018-06-18T05:52:20.853Z,1014.38
2018-06-18T05:53:29.507Z,1014.39
2018-06-18T05:54:38.153Z,1014.38
2018-06-18T05:55:46.798Z,1014.39
2018-06-18T05:56:55.437Z,1014.36
2018-06-18T05:58:04.352Z,1014.38
2018-06-18T05:59:13.003Z,1014.39
2018-06-18T06:00:21.649Z,1014.34
2018-06-18T06:01:30.297Z,1014.36
2018-06-18T06:02:38.932Z,1014.42
2018-06-18T06:03:47.584Z,1014.37
2018-06-18T06:04:56.228Z,1014.39
2018-06-18T06:06:04.941Z,1014.39
2018-06-18T06:07:13.521Z,1014.38
2018-06-18T06:08:22.172Z,1014.41
2018-06-18T06:09:30.814Z,1014.4
2018-06-18T06:10:39.471Z,1014.45
2018-06-18T06:11:48.108Z,1014.4
2018-06-18T06:12:56.773Z,1014.4
2018-06-18T06:14:05.681Z,1014.41
2018-06-18T06:15:14.343Z,1014.4
2018-06-18T06:16:22.986Z,1014.36
2018-06-18T06:17:31.630Z,1014.4
2018-06-18T06:18:40.278Z,1014.38
2018-06-18T06:19:48.917Z,1014.4
2018-06-18T06:20:57.571Z,1014.4
2018-06-18T06:22:06.214Z,1014.38
2018-06-18T06:23:14.865Z,1014.36
2018-06-18T06:24:23.503Z,1014.44
2018-06-18T06:25:32.158Z,1014.4
2018-06-18T06:26:40.798Z,1014.46
2018-06-18T06:27:49.448Z,1014.45
2018-06-18T06:28:58.095Z,1014.43
2018-06-18T06:30:06.746Z,1014.44
2018-06-18T06:31:15.390Z,1014.43
2018-06-18T06:32:24.039Z,1014.45
2018-06-18T06:33:32.682Z,1014.41
2018-06-18T06:34:41.334Z,1014.41
2018-06-18T06:35:49.987Z,1014.4
2018-06-18T06:36:58.890Z,1014.43
2018-06-18T06:38:07.540Z,1014.45
2018-06-18T06:39:16.182Z,1014.42
2018-06-18T06:40:24.827Z,1014.47
2018-06-18T06:41:33.475Z,1014.52
2018-06-18T06:42:42.392Z,1014.48
2018-06-18T06:43:51.038Z,1014.52
2018-06-18T06:44:59.682Z,1014.57
2018-06-18T06:46:08.333Z,1014.53
2018-06-18T06:47:16.985Z,1014.54
2018-06-18T06:48:25.622Z,1014.5
2018-06-18T06:49:34.272Z,1014.48
2018-06-18T06:50:42.915Z,1014.52
2018-06-18T06:51:51.833Z,1014.52
2018-06-18T06:53:00.479Z,1014.54
2018-06-18T06:54:09.124Z,1014.55
2018-06-18T06:55:17.769Z,1014.54
2018-06-18T06:56:26.686Z,1014.51
2018-06-18T06:57:35.643Z,1014.55
2018-06-18T06:58:44.851Z,1014.6
2018-06-18T06:59:53.499Z,1014.56
2018-06-18T07:01:02.142Z,1014.59
2018-06-18T07:02:10.797Z,1014.61
2018-06-18T07:03:19.443Z,1014.62
2018-06-18T07:04:28.088Z,1014.6
2018-06-18T07:05:36.729Z,1014.61
2018-06-18T07:06:45.382Z,1014.6
2018-06-18T07:07:54.048Z,1014.59
2018-06-18T07:09:03.314Z,1014.63
2018-06-18T07:10:11.957Z,1014.63
2018-06-18T07:11:20.606Z,1014.62
2018-06-18T07:12:29.253Z,1014.6
2018-06-18T07:13:38.071Z,1014.65
2018-06-18T07:14:46.554Z,1014.66
2018-06-18T07:15:55.467Z,1014.68
2018-06-18T07:17:04.109Z,1014.65
2018-06-18T07:18:12.757Z,1014.64
2018-06-18T07:19:21.943Z,1014.63
2018-06-18T07:20:30.589Z,1014.6
2018-06-18T07:21:39.236Z,1014.64
2018-06-18T07:22:47.886Z,1014.64
2018-06-18T07:23:56.538Z,1014.6
2018-06-18T07:25:05.179Z,1014.6
2018-06-18T07:26:14.096Z,1014.61
2018-06-18T07:27:22.747Z,1014.6
2018-06-18T07:28:31.385Z,1014.6
2018-06-18T07:29:40.040Z,1014.62
2018-06-18T07:30:48.703Z,1014.63
2018-06-18T07:31:57.633Z,1014.66
2018-06-18T07:33:06.282Z,1014.61
2018-06-18T07:34:14.925Z,1014.69
2018-06-18T07:35:23.842Z,1014.62
2018-06-18T07:36:32.489Z,1014.58
2018-06-18T07:37:41.140Z,1014.61
2018-06-18T07:38:49.786Z,1014.57
2018-06-18T07:39:58.436Z,1014.62
2018-06-18T07:41:07.612Z,1014.61
2018-06-18T07:42:16.262Z,1014.63
2018-06-18T07:43:24.904Z,1014.63
2018-06-18T07:44:33.557Z,1014.68
2018-06-18T07:45:42.535Z,1014.66
2018-06-18T07:46:51.119Z,1014.77
2018-06-18T07:47:59.765Z,1014.77
2018-06-18T07:49:08.414Z,1014.8
2018-06-18T07:50:17.060Z,1014.76
2018-06-18T07:51:25.737Z,1014.78
2018-06-18T07:52:34.713Z,1014.75
2018-06-18T07:53:43.362Z,1014.85
2018-06-18T07:54:52.007Z,1014.76
2018-06-18T07:56:00.648Z,1014.81
2018-06-18T07:57:09.309Z,1014.77
2018-06-18T07:58:18.215Z,1014.7
2018-06-18T07:59:27.138Z,1014.77
2018-06-18T08:00:35.780Z,1014.7
2018-06-18T08:01:44.966Z,1014.67
2018-06-18T08:02:53.612Z,1014.66
2018-06-18T08:04:02.526Z,1014.63
2018-06-18T08:05:11.462Z,1014.67
2018-06-18T08:06:20.108Z,1014.62
2018-06-18T08:07:29.283Z,1014.65
2018-06-18T08:08:37.931Z,1014.66
2018-06-18T08:09:46.873Z,1014.64
2018-06-18T08:10:55.493Z,1014.61
2018-06-18T08:12:04.140Z,1014.61
2018-06-18T08:13:12.788Z,1014.6
2018-06-18T08:14:21.443Z,1014.6
2018-06-18T08:15:30.083Z,1014.56
2018-06-18T08:16:38.732Z,1014.57
2018-06-18T08:17:47.380Z,1014.62
2018-06-18T08:18:56.033Z,1014.59
2018-06-18T08:20:04.676Z,1014.56
2018-06-18T08:21:13.325Z,1014.57
2018-06-18T08:22:21.977Z,1014.55
2018-06-18T08:23:30.631Z,1014.52
2018-06-18T08:24:39.275Z,1014.54
2018-06-18T08:25:47.923Z,1014.53
2018-06-18T08:26:56.607Z,1014.56
2018-06-18T08:28:05.575Z,1014.57
2018-06-18T08:29:14.233Z,1014.62
2018-06-18T08:30:22.875Z,1014.66
2018-06-18T08:31:31.527Z,1014.65
2018-06-18T08:32:40.425Z,1014.63
2018-06-18T08:33:49.350Z,1014.62
2018-06-18T08:34:58.027Z,1014.63
2018-06-18T08:36:06.645Z,1014.6
2018-06-18T08:37:15.547Z,1014.58
2018-06-18T08:38:24.205Z,1014.61
2018-06-18T08:39:33.121Z,1014.56
2018-06-18T08:40:41.773Z,1014.57
2018-06-18T08:41:50.411Z,1014.63
2018-06-18T08:42:59.062Z,1014.59
2018-06-18T08:44:07.714Z,1014.62
2018-06-18T08:45:16.366Z,1014.57
2018-06-18T08:46:25.029Z,1014.54
2018-06-18T08:47:33.929Z,1014.53
2018-06-18T08:48:42.851Z,1014.55
2018-06-18T08:49:51.756Z,1014.53
2018-06-18T08:51:00.414Z,1014.5
2018-06-18T08:52:09.320Z,1014.47
2018-06-18T08:53:17.974Z,1014.55
2018-06-18T08:54:26.614Z,1014.54
2018-06-18T08:55:35.275Z,1014.54
2018-06-18T08:56:43.914Z,1014.52
2018-06-18T08:57:52.647Z,1014.54
2018-06-18T08:59:01.213Z,1014.5
2018-06-18T09:00:09.872Z,1014.49
2018-06-18T09:01:18.516Z,1014.4
2018-06-18T09:02:27.163Z,1014.45
2018-06-18T09:03:35.811Z,1014.45
2018-06-18T09:04:44.457Z,1014.46
2018-06-18T09:05:53.116Z,1014.47
2018-06-18T09:07:01.759Z,1014.37
2018-06-18T09:08:10.413Z,1014.41
2018-06-18T09:09:19.318Z,1014.41
2018-06-18T09:10:28.043Z,1014.38
2018-06-18T09:11:36.629Z,1014.41
2018-06-18T09:12:45.550Z,1014.45
2018-06-18T09:13:54.191Z,1014.46
2018-06-18T09:15:02.852Z,1014.53
2018-06-18T09:16:11.557Z,1014.41
2018-06-18T09:17:20.153Z,1014.45
2018-06-18T09:18:28.793Z,1014.4
2018-06-18T09:19:37.445Z,1014.42
2018-06-18T09:20:46.364Z,1014.43
2018-06-18T09:21:55.019Z,1014.38
2018-06-18T09:23:03.671Z,1014.41
2018-06-18T09:24:12.312Z,1014.35
2018-06-18T09:25:20.963Z,1014.46
2018-06-18T09:26:29.611Z,1014.43
2018-06-18T09:27:38.267Z,1014.44
2018-06-18T09:28:46.912Z,1014.45
2018-06-18T09:29:55.566Z,1014.49
2018-06-18T09:31:04.218Z,1014.48
2018-06-18T09:32:13.048Z,1014.45
2018-06-18T09:33:21.520Z,1014.45
2018-06-18T09:34:30.171Z,1014.45
2018-06-18T09:35:38.863Z,1014.43
2018-06-18T09:36:47.474Z,1014.45
2018-06-18T09:37:56.122Z,1014.46
2018-06-18T09:39:04.772Z,1014.44
2018-06-18T09:40:13.419Z,1014.49
2018-06-18T09:41:22.067Z,1014.5
2018-06-18T09:42:30.719Z,1014.53
2018-06-18T09:43:39.373Z,1014.54
2018-06-18T09:44:48.557Z,1014.51
2018-06-18T09:45:57.203Z,1014.54
2018-06-18T09:47:06.123Z,1014.54
2018-06-18T09:48:14.771Z,1014.47
2018-06-18T09:49:23.423Z,1014.56
2018-06-18T09:50:32.067Z,1014.48
2018-06-18T09:51:40.721Z,1014.48
2018-06-18T09:52:49.367Z,1014.51
2018-06-18T09:53:58.018Z,1014.56
2018-06-18T09:55:06.930Z,1014.57
2018-06-18T09:56:15.585Z,1014.58
2018-06-18T09:57:24.240Z,1014.58
2018-06-18T09:58:33.152Z,1014.55
2018-06-18T09:59:41.804Z,1014.56
2018-06-18T10:00:50.456Z,1014.57
2018-06-18T10:01:59.105Z,1014.6
2018-06-18T10:03:07.756Z,1014.59
2018-06-18T10:04:16.410Z,1014.6
2018-06-18T10:05:25.054Z,1014.63
2018-06-18T10:06:33.704Z,1014.67
2018-06-18T10:07:42.354Z,1014.62
2018-06-18T10:08:51.326Z,1014.65
2018-06-18T10:09:59.911Z,1014.65
2018-06-18T10:11:08.569Z,1014.62
2018-06-18T10:12:17.216Z,1014.66
2018-06-18T10:13:25.875Z,1014.58
2018-06-18T10:14:34.788Z,1014.63
2018-06-18T10:15:43.432Z,1014.71
2018-06-18T10:16:52.077Z,1014.66
2018-06-18T10:18:00.995Z,1014.69
2018-06-18T10:19:09.915Z,1014.7
2018-06-18T10:20:18.563Z,1014.68
2018-06-18T10:21:27.213Z,1014.65
2018-06-18T10:22:35.859Z,1014.66
2018-06-18T10:23:44.517Z,1014.69
2018-06-18T10:24:53.164Z,1014.68
2018-06-18T10:26:01.816Z,1014.68
2018-06-18T10:27:10.452Z,1014.63
2018-06-18T10:28:19.110Z,1014.68
2018-06-18T10:29:27.763Z,1014.68
2018-06-18T10:30:36.421Z,1014.69
2018-06-18T10:31:45.326Z,1014.7
2018-06-18T10:32:54.240Z,1014.67
2018-06-18T10:34:02.896Z,1014.69
2018-06-18T10:35:11.553Z,1014.72
2018-06-18T10:36:20.205Z,1014.73
2018-06-18T10:37:29.369Z,1014.75
2018-06-18T10:38:38.022Z,1014.71
2018-06-18T10:39:46.670Z,1014.65
2018-06-18T10:40:55.327Z,1014.68
2018-06-18T10:42:03.975Z,1014.71
2018-06-18T10:43:12.631Z,1014.65
2018-06-18T10:44:21.275Z,1014.67
2018-06-18T10:45:29.933Z,1014.7
2018-06-18T10:46:38.573Z,1014.66
2018-06-18T10:47:47.758Z,1014.67
2018-06-18T10:48:56.470Z,1014.64
2018-06-18T10:50:05.063Z,1014.68
2018-06-18T10:51:13.977Z,1014.7
2018-06-18T10:52:22.620Z,1014.66
2018-06-18T10:53:31.534Z,1014.71
2018-06-18T10:54:40.182Z,1014.75
2018-06-18T10:55:48.843Z,1014.75
2018-06-18T10:56:57.494Z,1014.75
2018-06-18T10:58:06.444Z,1014.68
2018-06-18T10:59:15.090Z,1014.72
2018-06-18T11:00:23.752Z,1014.71
2018-06-18T11:01:32.664Z,1014.69
2018-06-18T11:02:41.582Z,1014.71
2018-06-18T11:03:50.277Z,1014.71
2018-06-18T11:04:58.884Z,1014.74
2018-06-18T11:06:07.534Z,1014.73
2018-06-18T11:07:16.186Z,1014.75
2018-06-18T11:08:24.826Z,1014.7
2018-06-18T11:09:33.477Z,1014.76
2018-06-18T11:10:42.131Z,1014.8
2018-06-18T11:11:50.782Z,1014.8
2018-06-18T11:12:59.439Z,1014.82
2018-06-18T11:14:08.079Z,1014.78
2018-06-18T11:15:16.735Z,1014.72
2018-06-18T11:16:25.559Z,1014.75
2018-06-18T11:17:34.624Z,1014.73
2018-06-18T11:18:43.258Z,1014.78
2018-06-18T11:19:51.920Z,1014.71
2018-06-18T11:21:00.829Z,1014.75
2018-06-18T11:22:09.478Z,1014.67
2018-06-18T11:23:18.141Z,1014.71
2018-06-18T11:24:26.831Z,1014.72
2018-06-18T11:25:35.749Z,1014.67
2018-06-18T11:26:44.764Z,1014.67
2018-06-18T11:27:54.204Z,1014.75
2018-06-18T11:29:02.859Z,1014.76
2018-06-18T11:30:11.512Z,1014.78
2018-06-18T11:31:20.202Z,1014.71
2018-06-18T11:32:28.891Z,1014.72
2018-06-18T11:33:37.461Z,1014.74
2018-06-18T11:34:46.107Z,1014.73
2018-06-18T11:35:55.042Z,1014.74
2018-06-18T11:37:03.683Z,1014.69
2018-06-18T11:38:12.342Z,1014.78
2018-06-18T11:39:21.025Z,1014.73
2018-06-18T11:40:30.022Z,1014.76
2018-06-18T11:41:38.959Z,1014.67
2018-06-18T11:42:47.593Z,1014.76
2018-06-18T11:43:56.237Z,1014.65
2018-06-18T11:45:05.156Z,1014.68
2018-06-18T11:46:13.803Z,1014.65
2018-06-18T11:47:22.457Z,1014.67
2018-06-18T11:48:31.367Z,1014.67
2018-06-18T11:49:40.023Z,1014.7
2018-06-18T11:50:48.715Z,1014.73
2018-06-18T11:51:57.328Z,1014.75
2018-06-18T11:53:06.247Z,1014.72
2018-06-18T11:54:14.935Z,1014.8
2018-06-18T11:55:23.549Z,1014.74
2018-06-18T11:56:32.197Z,1014.76
2018-06-18T11:57:40.849Z,1014.77
2018-06-18T11:58:49.491Z,1014.77
2018-06-18T11:59:58.153Z,1014.82
2018-06-18T12:01:07.062Z,1014.84
2018-06-18T12:02:15.716Z,1014.85
2018-06-18T12:03:24.357Z,1014.89
2018-06-18T12:04:33.014Z,1014.9
2018-06-18T12:05:41.670Z,1014.86
2018-06-18T12:06:50.326Z,1014.82
2018-06-18T12:07:58.976Z,1014.85
2018-06-18T12:09:07.620Z,1014.89
2018-06-18T12:10:16.274Z,1014.83
2018-06-18T12:11:24.919Z,1014.88
2018-06-18T12:12:33.578Z,1014.79
2018-06-18T12:13:42.226Z,1014.84
2018-06-18T12:14:50.882Z,1014.8
2018-06-18T12:15:59.791Z,1014.83
2018-06-18T12:17:08.449Z,1014.84
2018-06-18T12:18:17.092Z,1014.79
2018-06-18T12:19:25.741Z,1014.84
2018-06-18T12:20:34.979Z,1014.83
2018-06-18T12:21:43.578Z,1014.86
2018-06-18T12:22:52.231Z,1014.85
2018-06-18T12:24:00.882Z,1014.91
2018-06-18T12:25:09.532Z,1014.86
2018-06-18T12:26:18.179Z,1014.84
2018-06-18T12:27:27.100Z,1014.87
2018-06-18T12:28:35.747Z,1014.9
2018-06-18T12:29:44.398Z,1014.84
2018-06-18T12:30:53.047Z,1014.88
2018-06-18T12:32:01.704Z,1014.87
2018-06-18T12:33:10.355Z,1014.86
2018-06-18T12:34:19.009Z,1014.81
2018-06-18T12:35:27.675Z,1014.8
2018-06-18T12:36:36.306Z,1014.88
2018-06-18T12:37:44.957Z,1014.85
2018-06-18T12:38:53.613Z,1014.89
2018-06-18T12:40:02.533Z,1014.91
2018-06-18T12:41:11.210Z,1014.9
2018-06-18T12:42:19.841Z,1014.95
2018-06-18T12:43:28.499Z,1014.94
2018-06-18T12:44:37.152Z,1014.9
2018-06-18T12:45:45.798Z,1014.94
2018-06-18T12:46:54.772Z,1014.89
2018-06-18T12:48:03.364Z,1014.85
2018-06-18T12:49:12.023Z,1014.88
2018-06-18T12:50:20.934Z,1014.86
2018-06-18T12:51:29.586Z,1014.88
2018-06-18T12:52:38.501Z,1014.85
2018-06-18T12:53:47.158Z,1014.84
2018-06-18T12:54:55.805Z,1014.82
2018-06-18T12:56:04.460Z,1014.84
2018-06-18T12:57:13.111Z,1014.84
2018-06-18T12:58:21.766Z,1014.79
2018-06-18T12:59:30.414Z,1014.81
2018-06-18T13:00:39.066Z,1014.75
2018-06-18T13:01:47.713Z,1014.79
2018-06-18T13:02:56.362Z,1014.81
2018-06-18T13:04:05.018Z,1014.77
2018-06-18T13:05:13.669Z,1014.79
2018-06-18T13:06:22.588Z,1014.8
2018-06-18T13:07:31.243Z,1014.71
2018-06-18T13:08:40.158Z,1014.68
2018-06-18T13:09:48.809Z,1014.72
2018-06-18T13:10:57.465Z,1014.71
2018-06-18T13:12:06.116Z,1014.72
2018-06-18T13:13:14.768Z,1014.74
2018-06-18T13:14:23.418Z,1014.81
2018-06-18T13:15:32.070Z,1014.77
2018-06-18T13:16:40.980Z,1014.74
2018-06-18T13:17:49.913Z,1014.73
2018-06-18T13:18:58.830Z,1014.74
2018-06-18T13:20:07.483Z,1014.77
2018-06-18T13:21:16.394Z,1014.73
2018-06-18T13:22:25.056Z,1014.71
2018-06-18T13:23:33.703Z,1014.72
2018-06-18T13:24:42.621Z,1014.74
2018-06-18T13:25:51.264Z,1014.77
2018-06-18T13:26:59.927Z,1014.77
2018-06-18T13:28:08.835Z,1014.89
2018-06-18T13:29:17.491Z,1014.89
2018-06-18T13:30:26.170Z,1014.96
2018-06-18T13:31:34.796Z,1014.96
2018-06-18T13:32:43.446Z,1015.02
2018-06-18T13:33:52.099Z,1015.01
2018-06-18T13:35:00.738Z,1015.06
2018-06-18T13:36:09.654Z,1015.05
2018-06-18T13:37:18.308Z,1015.1
2018-06-18T13:38:27.226Z,1015.09
2018-06-18T13:39:35.883Z,1015.11
2018-06-18T13:40:44.784Z,1015.12
2018-06-18T13:41:53.440Z,1015.14
2018-06-18T13:43:02.088Z,1015.17
2018-06-18T13:44:10.759Z,1015.2
2018-06-18T13:45:19.390Z,1015.18
2018-06-18T13:46:28.046Z,1015.17
2018-06-18T13:47:36.692Z,1015.2
2018-06-18T13:48:45.351Z,1015.2
2018-06-18T13:49:53.993Z,1015.15
2018-06-18T13:51:02.644Z,1015.18
2018-06-18T13:52:11.294Z,1015.16
2018-06-18T13:53:19.962Z,1015.14
2018-06-18T13:54:28.872Z,1015.12